• Join FlightAware (Why Join?)
  • Login
  • US Flag 
02:19PM EDT


 

Airport Tracker/Info


-or-


 

Live Flight TrackerFlight Track Log ✈ AXM5243 ✈ 23-Oct-2013 ✈ WBGB / BTU - WMKK / KUL

Flight Track Log - Related Links

Times and Time Zones

All times are in EDT time to prevent confusion due to time zone crossing. See the AXM5243 flight status page for this flight to view local times or setup timezone preferences in your user account.

Time Position Orientation Groundspeed Altitude Reporting Facility
EDT Latitude Longitude Course Direction KTS MPH feet Rate Location/Type
07:50AM 2.9640 111.5090 261° West 415 478 30,000  Level FlightAware
07:50AM 2.9550 111.4470 262° West 420 483 30,600 600 Climbing FlightAware
07:51AM 2.9460 111.3920 261° West 420 483 30,700 60 Climbing FlightAware
07:52AM 2.9370 111.3320 261° West 420 483 30,700 1,920 Level FlightAware
07:52AM 2.9250 111.2470 262° West 414 476 33,000 2,760 Climbing FlightAware
07:53AM 2.9170 111.1930 262° West 409 471 33,600 1,140 Climbing FlightAware
07:54AM 2.9020 111.0880 262° West 407 468 34,700 780 Climbing FlightAware
07:54AM 2.8870 110.9920 261° West 420 483 35,000 360 Climbing FlightAware
07:55AM 2.8760 110.9130 262° West 431 496 35,300 360 Climbing FlightAware
07:56AM 2.8650 110.8410 261° West 442 509 35,500 240 Climbing FlightAware
07:56AM 2.8530 110.7620 261° West 453 521 35,600 180 Climbing FlightAware
07:57AM 2.8400 110.6740 262° West 464 534 35,800 360 Climbing FlightAware
07:58AM 2.8280 110.5900 262° West 472 543 36,100 600 Climbing FlightAware
07:58AM 2.8150 110.5060 261° West 472 543 36,600 780 Climbing FlightAware
07:59AM 2.8030 110.4250 262° West 472 543 37,100 900 Climbing FlightAware
08:00AM 2.7920 110.3520 261° West 467 537 37,700 600 Climbing FlightAware
08:00AM 2.7770 110.2500 262° West 466 536 38,000 180 Climbing FlightAware
08:01AM 2.7640 110.1680 261° West 465 535 38,000  Level FlightAware
08:02AM 2.7520 110.0820 262° West 464 534 38,000  Level FlightAware
08:02AM 2.7400 110.0040 261° West 464 534 38,000  Level FlightAware
08:03AM 2.7280 109.9220 262° West 465 535 38,000  Level FlightAware
08:04AM 2.7150 109.8400 261° West 465 535 38,000  Level FlightAware
08:04AM 2.7020 109.7540 261° West 464 534 38,000  Level FlightAware
08:05AM 2.6880 109.6570 262° West 463 533 38,000  Level FlightAware
08:06AM 2.6740 109.5640 261° West 464 534 38,000  Level FlightAware
08:06AM 2.6630 109.4880 262° West 466 536 38,000  Level FlightAware
08:07AM 2.6490 109.3980 261° West 469 540 38,000  Level FlightAware
08:08AM 2.6350 109.3030 262° West 471 542 38,000  Level FlightAware
08:08AM 2.6270 109.2500 261° West 471 542 38,000  Level FlightAware
08:09AM 2.6110 109.1480 261° West 472 543 38,000 60 Level FlightAware
08:10AM 2.5950 109.0410 261° West 471 542 38,100  Climbing FlightAware
08:10AM 2.5820 108.9580 261° West 470 541 38,000 -120 Descending FlightAware
08:11AM 2.5540 108.8640 253° West 470 541 38,000  Level FlightAware
08:12AM 2.5330 108.8110 248° West 469 540 38,000  Level FlightAware
08:12AM 2.5030 108.7330 249° West 468 539 38,000  Level FlightAware
08:13AM 2.4720 108.6510 249° West 469 540 38,000  Level FlightAware
08:14AM 2.4430 108.5760 249° West 469 540 38,000  Level FlightAware
08:14AM 2.4180 108.5110 249° West 470 541 38,000  Level FlightAware
08:15AM 2.3830 108.4210 249° West 470 541 38,000  Level FlightAware
08:15AM 2.3520 108.3400 249° West 471 542 38,000  Level FlightAware
08:16AM 2.3190 108.2540 249° West 470 541 38,000  Level FlightAware
08:17AM 2.3010 108.2070 249° West 471 542 38,000  Level FlightAware
08:17AM 2.2740 108.1400 248° West 471 542 38,000  Level FlightAware
08:18AM 2.2490 108.0800 247° West 471 542 38,000  Level FlightAware
08:19AM 2.2160 107.9980 248° West 471 542 38,000  Level FlightAware
08:19AM 2.1830 107.9150 248° West 471 542 38,000  Level FlightAware
08:20AM 2.1490 107.8330 247° West 471 542 38,000  Level FlightAware
08:21AM 2.1150 107.7480 248° West 471 542 38,000  Level FlightAware
08:21AM 2.0990 107.7070 249° West 471 542 38,000  Level FlightAware
08:22AM 2.0650 107.6250 247° West 471 542 38,000  Level FlightAware
08:23AM 2.0400 107.5630 248° West 471 542 38,000  Level FlightAware
08:23AM 2.0140 107.4980 248° West 471 542 38,000  Level FlightAware
08:24AM 1.9900 107.4390 248° West 471 542 38,000  Level FlightAware
08:25AM 1.9650 107.3760 248° West 471 542 38,000  Level FlightAware
08:25AM 1.9320 107.2930 248° West 471 542 38,000  Level FlightAware
08:26AM 1.9150 107.2520 247° West 471 542 38,000  Level FlightAware
08:26AM 1.8890 107.1880 248° West 471 542 38,000  Level FlightAware
08:29AM 1.9337 106.9051 279° West  Level Estimated
08:30AM 1.9554 106.7683 279° West  Level Estimated
08:30AM 2.5110 106.5790 279° West 463 533 38,000  Level FlightAware
08:30AM 2.5280 106.5160 285° West 463 533 38,000  Level FlightAware
08:31AM 2.5610 106.4040 286° West 465 535 38,000  Level FlightAware
08:31AM 2.5730 106.3600 285° West 466 536 38,000  Level FlightAware
08:32AM 2.6040 106.2480 285° West 467 537 38,000  Level FlightAware
08:33AM 2.6240 106.1760 286° West 467 537 38,000  Level FlightAware
08:33AM 2.6320 106.1450 284° West 466 536 38,000  Level FlightAware
08:34AM 2.6500 106.0780 285° West 466 536 38,000  Level FlightAware
08:35AM 2.6840 105.9590 286° West 464 534 38,000  Level FlightAware
08:35AM 2.7020 105.8940 285° West 462 532 38,000  Level FlightAware
08:36AM 2.7290 105.7950 285° West 460 529 38,000  Level FlightAware
08:37AM 2.7600 105.6820 285° West 461 531 38,000  Level FlightAware
08:37AM 2.7780 105.6150 285° West 463 533 38,000  Level FlightAware
08:38AM 2.7990 105.5400 286° West 464 534 38,000  Level FlightAware
08:39AM 2.8200 105.4640 285° West 463 533 38,000  Level FlightAware
08:39AM 2.8420 105.3840 285° West 464 534 38,000  Level FlightAware
08:40AM 2.8600 105.3200 286° West 466 536 38,000  Level FlightAware
08:40AM 2.8850 105.2270 285° West 468 539 38,000  Level FlightAware
08:41AM 2.9070 105.1470 285° West 470 541 38,000  Level FlightAware
08:42AM 2.9280 105.0700 285° West 470 541 38,000  Level FlightAware
08:42AM 2.9400 105.0270 286° West 470 541 38,000  Level FlightAware
08:43AM 2.9630 104.9400 285° West 470 541 38,000  Level FlightAware
08:44AM 2.9970 104.8240 286° West 463 533 38,000  Level FlightAware
08:44AM 3.0150 104.7570 285° West 462 532 38,000  Level FlightAware
08:45AM 3.0370 104.6770 285° West 461 531 38,000  Level FlightAware
08:45AM 3.0570 104.6060 286° West 463 533 38,000  Level FlightAware
08:46AM 3.0790 104.5250 285° West 464 534 38,000  Level FlightAware
08:47AM 3.1180 104.3820 285° West 467 537 38,000  Level FlightAware
08:48AM 3.1370 104.3110 285° West 467 537 38,000  Level FlightAware
08:49AM 3.1550 104.2470 286° West 467 537 38,000  Level FlightAware
08:49AM 3.1770 104.1240 280° West 472 543 38,000  Level FlightAware
08:50AM 3.1830 104.0800 278° West 472 543 38,000  Level FlightAware
08:50AM 3.1720 103.9900 263° West 470 541 38,000 -180 Level FlightAware
08:51AM 3.1670 103.8520 268° West 469 540 37,800 -300 Descending FlightAware
08:52AM 3.1630 103.7720 267° West 466 536 37,500 -240 Descending FlightAware
08:53AM 3.1600 103.7040 267° West 466 536 37,500  Level FlightAware
08:53AM 3.1560 103.6340 267° West 466 536 37,500  Level FlightAware
08:54AM 3.1540 103.5880 268° West 466 536 37,500  Level FlightAware
08:55AM 3.1490 103.4980 267° West 466 536 37,500  Level FlightAware
08:56AM 3.1430 103.3890 267° West 466 536 37,500 -3,540 Level FlightAware
08:56AM 3.2190 103.2200 294° West 623 717 31,100 -5,460 Descending FlightAware
08:57AM 3.2290 103.1600 279° West 420 483 30,100 -780 Descending FlightAware
08:58AM 3.2400 103.0780 278° West 420 483 30,100  Level FlightAware
08:58AM 3.2500 103.0060 278° West 420 483 30,100  Level FlightAware
08:59AM 3.2590 102.9470 279° West 420 483 30,100  Level FlightAware
09:00AM 3.2700 102.8690 278° West 420 483 30,100  Level FlightAware
09:01AM 3.2780 102.8080 277° West 420 483 30,100  Level FlightAware
09:01AM 3.2840 102.7690 279° West 420 483 30,100  Level FlightAware
09:02AM 3.2950 102.6890 278° West 420 483 30,100  Level FlightAware
09:02AM 3.3000 102.6490 277° West 420 483 30,100  Level FlightAware
09:03AM 3.3110 102.5710 278° West 420 483 30,100  Level FlightAware
09:04AM 3.3200 102.5100 278° West 420 483 30,100  Level FlightAware
09:04AM 3.3260 102.4710 279° West 420 483 30,100  Level FlightAware
09:05AM 3.3370 102.3920 278° West 420 483 30,100  Level FlightAware
09:05AM 3.3450 102.3330 278° West 420 483 30,100  Level FlightAware
09:06AM 3.3560 102.2540 278° West 420 483 30,100  Level FlightAware
09:07AM 3.3640 102.1960 278° West 420 483 30,100  Level FlightAware
09:10AM 3.0626 101.9590 218° Southwest  Level Estimated
09:11AM 2.9537 101.8734 218° Southwest  Level Estimated
09:12AM 2.8447 101.7878 218° Southwest  Level Estimated
09:13AM 2.7456 101.7099 218° Southwest  Level Estimated
09:14AM 2.7456 101.7099 236° Southwest  Level Estimated
09:15AM 2.7456 101.7099 236° Southwest  Level Estimated
09:16AM 2.7456 101.7099 236° Southwest  Level Estimated
09:17AM 2.7456 101.7099 236° Southwest  Level Estimated
09:18AM 2.7456 101.7099 236° Southwest  Level Estimated
09:19AM 2.7456 101.7099 236° Southwest  Level Estimated
09:20AM 2.7456 101.7099 236° Southwest  Level Estimated
09:21AM 2.7456 101.7099 236° Southwest  Level Estimated
09:22AM 2.7456 101.7099 236° Southwest  Level Estimated
09:23AM 2.7456 101.7099 236° Southwest  Level Estimated
09:24AM 2.7456 101.7099 236° Southwest  Level Estimated
09:25AM 2.7456 101.7099 236° Southwest  Level Estimated
09:26AM 2.7456 101.7099 236° Southwest  Level Estimated
09:27AM 2.7456 101.7099 236° Southwest  Level Estimated
09:28AM 2.7456 101.7099 236° Southwest  Level Estimated